Time;durP1;ratioP1;P1;durP2;ratioP2;P2;SDS_P1;SDS_P2;PMS_P1;PMS_P2;Temp;Humidity;BMP_temperature;BMP_pressure;BME280_temperature;BME280_humidity;BME280_pressure;Samples;Min_cycle;Max_cycle;Signal;HPM_P1;HPM_P2
2022/04/07 00:00:47;;;;;;;22.75;4.78;;;;;;;;;;5105467;27;20734;-73
2022/04/07 00:03:12;;;;;;;24.50;4.57;;;;;;;;;;5124072;27;20069;-74
2022/04/07 00:05:37;;;;;;;28.13;5.45;;;;;;;;;;5091528;27;20027;-73
2022/04/07 00:08:03;;;;;;;23.27;4.78;;;;;;;;;;5104832;27;20075;-75
2022/04/07 00:10:28;;;;;;;25.05;4.63;;;;;;;;;;5088903;27;20030;-72
2022/04/07 00:12:54;;;;;;;19.75;4.95;;;;;;;;;;5088527;27;20049;-75
2022/04/07 00:15:20;;;;;;;20.40;4.82;;;;;;;;;;5125446;27;20023;-73
2022/04/07 00:17:45;;;;;;;25.20;4.95;;;;;;;;;;5116991;27;20161;-74
2022/04/07 00:20:11;;;;;;;25.40;4.43;;;;;;;;;;5123968;27;20098;-75
2022/04/07 00:22:36;;;;;;;26.45;5.40;;;;;;;;;;5118307;27;20118;-74
2022/04/07 00:25:02;;;;;;;25.33;4.30;;;;;;;;;;5124241;27;20124;-73
2022/04/07 00:27:28;;;;;;;24.13;4.55;;;;;;;;;;5123446;27;20027;-73
2022/04/07 00:29:53;;;;;;;25.20;4.47;;;;;;;;;;5116874;27;20026;-74
2022/04/07 00:32:18;;;;;;;26.05;4.43;;;;;;;;;;5131958;27;20123;-72
2022/04/07 00:34:46;;;;;;;21.35;4.68;;;;;;;;;;5141481;27;20023;-77
2022/04/07 00:37:11;;;;;;;26.52;5.00;;;;;;;;;;5140673;27;20351;-74
2022/04/07 00:39:37;;;;;;;26.65;4.85;;;;;;;;;;5107470;27;20545;-73
2022/04/07 00:42:02;;;;;;;24.05;5.15;;;;;;;;;;5125134;27;20022;-74
2022/04/07 00:44:28;;;;;;;27.30;4.65;;;;;;;;;;5126442;27;20106;-76
2022/04/07 00:46:54;;;;;;;27.52;5.70;;;;;;;;;;5106356;27;20092;-73
2022/04/07 00:49:20;;;;;;;28.45;5.00;;;;;;;;;;5124086;27;20119;-74
2022/04/07 00:51:46;;;;;;;25.38;4.78;;;;;;;;;;5124386;27;20064;-74
2022/04/07 00:54:12;;;;;;;24.52;5.72;;;;;;;;;;5123629;27;20069;-74
2022/04/07 00:56:38;;;;;;;28.95;5.65;;;;;;;;;;5125140;27;20441;-77
2022/04/07 00:59:04;;;;;;;27.67;5.03;;;;;;;;;;5133615;27;20033;-72
2022/04/07 01:01:30;;;;;;;21.85;4.68;;;;;;;;;;5123692;27;20094;-74
2022/04/07 01:03:57;;;;;;;26.80;5.20;;;;;;;;;;5100803;27;20500;-74
2022/04/07 01:06:22;;;;;;;35.47;5.85;;;;;;;;;;5122865;27;20019;-77
2022/04/07 01:08:47;;;;;;;23.63;5.45;;;;;;;;;;5087227;27;20485;-72
2022/04/07 01:11:13;;;;;;;34.45;6.32;;;;;;;;;;5125623;27;20399;-74
2022/04/07 01:13:49;;;;;;;32.58;5.68;;;;;;;;;;5143835;27;20094;-74
2022/04/07 01:16:15;;;;;;;29.20;5.35;;;;;;;;;;5127095;27;20023;-73
2022/04/07 01:18:40;;;;;;;33.83;5.85;;;;;;;;;;5125635;27;20046;-74
2022/04/07 01:21:08;;;;;;;32.15;6.25;;;;;;;;;;5129816;27;20534;-73
2022/04/07 01:23:34;;;;;;;28.13;5.95;;;;;;;;;;5108528;27;20023;-74
2022/04/07 01:26:01;;;;;;;29.30;5.78;;;;;;;;;;5114336;27;20072;-74
2022/04/07 01:28:26;;;;;;;25.02;5.32;;;;;;;;;;5148327;27;20026;-73
2022/04/07 01:30:51;;;;;;;25.45;4.68;;;;;;;;;;5094455;27;20401;-74
2022/04/07 01:33:18;;;;;;;29.70;5.20;;;;;;;;;;5123654;27;20023;-74
2022/04/07 01:35:44;;;;;;;35.92;5.68;;;;;;;;;;5141711;27;20027;-74
2022/04/07 01:38:09;;;;;;;29.17;5.88;;;;;;;;;;5135871;27;20481;-74
2022/04/07 01:40:35;;;;;;;37.22;6.13;;;;;;;;;;5128303;27;20034;-74
2022/04/07 01:43:04;;;;;;;43.20;6.13;;;;;;;;;;5109195;27;20035;-76
2022/04/07 01:45:31;;;;;;;33.92;7.07;;;;;;;;;;5128839;27;20015;-76
2022/04/07 01:47:56;;;;;;;48.22;7.05;;;;;;;;;;5125317;27;20039;-76
2022/04/07 01:50:23;;;;;;;38.95;5.90;;;;;;;;;;5125118;27;20027;-74
2022/04/07 01:52:48;;;;;;;40.25;6.60;;;;;;;;;;5145551;27;20026;-74
2022/04/07 01:55:15;;;;;;;34.70;6.65;;;;;;;;;;5143926;27;20537;-73
2022/04/07 01:57:40;;;;;;;37.33;6.20;;;;;;;;;;5125751;27;20158;-75
2022/04/07 02:00:06;;;;;;;42.25;7.05;;;;;;;;;;5128010;27;20065;-74
2022/04/07 02:02:31;;;;;;;35.88;6.15;;;;;;;;;;5088730;27;20027;-75
2022/04/07 02:05:00;;;;;;;37.28;6.80;;;;;;;;;;5122663;27;20675;-75
2022/04/07 02:07:29;;;;;;;39.35;7.25;;;;;;;;;;5128589;27;20023;-73
2022/04/07 02:09:55;;;;;;;37.55;7.53;;;;;;;;;;5108423;27;20033;-75
2022/04/07 02:12:21;;;;;;;45.45;8.32;;;;;;;;;;5121579;27;20101;-76
2022/04/07 02:14:49;;;;;;;47.63;7.32;;;;;;;;;;5128212;27;20532;-73
2022/04/07 02:17:20;;;;;;;42.90;7.72;;;;;;;;;;5122675;27;20037;-74
2022/04/07 02:19:47;;;;;;;35.65;6.45;;;;;;;;;;5119353;27;20053;-74
2022/04/07 02:22:12;;;;;;;39.15;7.00;;;;;;;;;;5144696;27;20053;-74
2022/04/07 02:24:40;;;;;;;39.55;7.60;;;;;;;;;;5146686;27;20042;-74
2022/04/07 02:27:06;;;;;;;42.45;8.45;;;;;;;;;;5108570;27;20113;-74
2022/04/07 02:29:31;;;;;;;47.40;8.95;;;;;;;;;;5146636;27;20067;-74
2022/04/07 02:31:56;;;;;;;46.00;8.27;;;;;;;;;;5105719;27;20038;-74
2022/04/07 02:34:21;;;;;;;42.45;7.07;;;;;;;;;;5108265;27;20030;-74
2022/04/07 02:36:47;;;;;;;45.25;7.93;;;;;;;;;;5108925;27;20027;-74
2022/04/07 02:39:13;;;;;;;44.47;7.32;;;;;;;;;;5126375;27;20022;-74
2022/04/07 02:41:38;;;;;;;44.25;8.35;;;;;;;;;;5127281;27;20015;-76
2022/04/07 02:44:04;;;;;;;40.20;7.63;;;;;;;;;;5126767;27;20030;-75
2022/04/07 02:46:29;;;;;;;41.08;7.50;;;;;;;;;;5127846;27;20034;-76
2022/04/07 02:48:54;;;;;;;43.08;7.05;;;;;;;;;;5104970;27;20485;-75
2022/04/07 02:51:19;;;;;;;49.33;8.13;;;;;;;;;;5128269;27;20026;-76
2022/04/07 02:53:46;;;;;;;44.22;7.82;;;;;;;;;;5143935;27;20141;-73
2022/04/07 02:56:12;;;;;;;43.90;6.70;;;;;;;;;;5146345;27;20522;-74
2022/04/07 02:58:37;;;;;;;34.53;6.70;;;;;;;;;;5126339;27;20473;-73
2022/04/07 03:01:02;;;;;;;32.60;6.47;;;;;;;;;;5126254;27;20536;-75
2022/04/07 03:03:28;;;;;;;43.45;6.82;;;;;;;;;;5141736;27;20588;-77
2022/04/07 03:05:53;;;;;;;47.40;8.45;;;;;;;;;;5126453;27;20409;-76
2022/04/07 03:08:18;;;;;;;37.33;6.75;;;;;;;;;;5108368;27;20111;-74
2022/04/07 03:10:44;;;;;;;32.60;6.20;;;;;;;;;;5089349;27;20090;-74
2022/04/07 03:13:09;;;;;;;42.53;6.97;;;;;;;;;;5106643;27;20079;-74
2022/04/07 03:15:35;;;;;;;39.03;6.68;;;;;;;;;;5107422;27;20411;-78
2022/04/07 03:18:00;;;;;;;29.42;6.18;;;;;;;;;;5102574;27;20104;-75
2022/04/07 03:20:25;;;;;;;32.45;6.38;;;;;;;;;;5123596;27;20019;-75
2022/04/07 03:22:50;;;;;;;30.30;5.63;;;;;;;;;;5086928;27;20065;-74
2022/04/07 03:25:16;;;;;;;31.52;6.00;;;;;;;;;;5127427;27;20019;-76
2022/04/07 03:27:41;;;;;;;33.58;5.68;;;;;;;;;;5097001;27;20026;-76
2022/04/07 03:30:07;;;;;;;24.05;4.43;;;;;;;;;;5127936;27;20122;-75
2022/04/07 03:32:32;;;;;;;32.35;4.78;;;;;;;;;;5145153;27;20109;-76
2022/04/07 03:34:57;;;;;;;25.58;4.60;;;;;;;;;;5107615;27;20037;-75
2022/04/07 03:37:22;;;;;;;29.98;5.07;;;;;;;;;;5126014;27;20434;-77
2022/04/07 03:39:49;;;;;;;22.40;4.82;;;;;;;;;;5146315;27;20392;-74
2022/04/07 03:42:15;;;;;;;29.23;5.20;;;;;;;;;;5111451;27;20466;-77
2022/04/07 03:44:40;;;;;;;29.77;4.82;;;;;;;;;;5127307;27;20083;-73
2022/04/07 03:47:06;;;;;;;26.77;5.60;;;;;;;;;;5125358;27;20393;-75
2022/04/07 03:49:31;;;;;;;29.42;6.20;;;;;;;;;;5144811;27;20022;-78
2022/04/07 03:51:56;;;;;;;27.88;4.85;;;;;;;;;;5143722;27;20362;-76
2022/04/07 03:54:21;;;;;;;23.88;4.53;;;;;;;;;;5105604;27;20027;-75
2022/04/07 03:56:47;;;;;;;26.33;5.05;;;;;;;;;;5124592;27;20035;-75
2022/04/07 03:59:12;;;;;;;25.27;4.22;;;;;;;;;;5105890;27;20353;-75
2022/04/07 04:01:39;;;;;;;23.63;4.20;;;;;;;;;;5124288;27;20365;-77
2022/04/07 04:04:04;;;;;;;21.95;4.65;;;;;;;;;;5119966;27;20015;-74
2022/04/07 04:06:30;;;;;;;21.83;4.68;;;;;;;;;;5106657;27;20031;-80
2022/04/07 04:08:55;;;;;;;21.65;4.28;;;;;;;;;;5122739;27;20038;-75
2022/04/07 04:11:21;;;;;;;24.30;4.60;;;;;;;;;;5142057;27;20110;-75
2022/04/07 04:13:46;;;;;;;24.58;4.35;;;;;;;;;;5129203;27;20160;-75
2022/04/07 04:16:14;;;;;;;20.85;3.35;;;;;;;;;;5146435;27;20113;-74
2022/04/07 04:18:40;;;;;;;15.90;3.53;;;;;;;;;;5129502;27;20121;-76
2022/04/07 04:21:05;;;;;;;19.50;3.63;;;;;;;;;;5145280;27;20106;-74
2022/04/07 04:23:30;;;;;;;24.92;4.18;;;;;;;;;;5143915;27;20471;-75
2022/04/07 04:25:56;;;;;;;19.45;3.67;;;;;;;;;;5144122;27;20023;-76
2022/04/07 04:28:21;;;;;;;11.93;3.30;;;;;;;;;;5126828;27;20030;-76
2022/04/07 04:30:46;;;;;;;24.80;4.60;;;;;;;;;;5126786;27;20026;-74
2022/04/07 04:33:12;;;;;;;21.88;4.40;;;;;;;;;;5141793;27;20050;-74
2022/04/07 04:35:38;;;;;;;25.45;4.20;;;;;;;;;;5110140;27;20031;-74
2022/04/07 04:38:03;;;;;;;18.55;3.58;;;;;;;;;;5129133;27;20159;-75
2022/04/07 04:40:28;;;;;;;21.27;3.90;;;;;;;;;;5122191;27;20019;-79
2022/04/07 04:42:54;;;;;;;16.95;3.88;;;;;;;;;;5143718;27;20457;-74
2022/04/07 04:45:19;;;;;;;17.17;4.10;;;;;;;;;;5124907;27;20030;-75
2022/04/07 04:47:45;;;;;;;13.23;3.42;;;;;;;;;;5141954;27;20119;-74
2022/04/07 04:50:13;;;;;;;17.27;3.53;;;;;;;;;;5121293;27;20330;-78
2022/04/07 04:52:38;;;;;;;15.15;3.17;;;;;;;;;;5146963;27;20011;-75
2022/04/07 04:55:03;;;;;;;13.73;3.30;;;;;;;;;;5146885;27;20497;-78
2022/04/07 04:57:29;;;;;;;17.35;3.90;;;;;;;;;;5146697;27;20034;-76
2022/04/07 04:59:54;;;;;;;17.00;3.50;;;;;;;;;;5128877;27;20257;-76
2022/04/07 05:02:20;;;;;;;18.70;3.40;;;;;;;;;;5090405;27;20393;-76
2022/04/07 05:04:45;;;;;;;23.33;2.85;;;;;;;;;;5088471;27;20059;-75
2022/04/07 05:07:11;;;;;;;17.25;2.40;;;;;;;;;;5104973;27;20279;-75
2022/04/07 05:09:39;;;;;;;11.07;2.33;;;;;;;;;;5125263;27;20632;-77
2022/04/07 05:12:05;;;;;;;9.27;1.60;;;;;;;;;;5105578;27;20058;-73
2022/04/07 05:14:30;;;;;;;14.55;2.50;;;;;;;;;;5126170;27;20405;-74
2022/04/07 05:16:55;;;;;;;17.67;2.42;;;;;;;;;;5104617;27;20050;-77
2022/04/07 05:19:21;;;;;;;20.00;3.05;;;;;;;;;;5089695;27;20118;-74
2022/04/07 05:21:49;;;;;;;29.85;3.80;;;;;;;;;;5111240;27;20393;-74
2022/04/07 05:24:17;;;;;;;24.10;3.75;;;;;;;;;;5108955;27;20110;-75
2022/04/07 05:26:43;;;;;;;26.83;3.40;;;;;;;;;;5111625;27;20027;-74
2022/04/07 05:29:08;;;;;;;20.88;3.60;;;;;;;;;;5092007;27;20357;-73
2022/04/07 05:31:33;;;;;;;28.52;3.10;;;;;;;;;;5128895;27;20362;-73
2022/04/07 05:33:59;;;;;;;37.67;4.05;;;;;;;;;;5103178;27;20030;-74
2022/04/07 05:36:26;;;;;;;31.40;3.90;;;;;;;;;;5129257;27;20434;-74
2022/04/07 05:38:51;;;;;;;36.10;3.63;;;;;;;;;;5128279;27;20024;-75
2022/04/07 05:41:16;;;;;;;22.95;3.05;;;;;;;;;;5148403;27;20018;-73
2022/04/07 05:43:41;;;;;;;28.35;3.28;;;;;;;;;;5129284;27;20014;-75
2022/04/07 05:46:07;;;;;;;21.75;2.40;;;;;;;;;;5112332;27;20091;-75
2022/04/07 05:48:32;;;;;;;24.50;2.92;;;;;;;;;;5111980;27;20324;-74
2022/04/07 05:50:58;;;;;;;19.42;3.05;;;;;;;;;;5110207;27;20034;-75
2022/04/07 05:53:23;;;;;;;17.63;2.78;;;;;;;;;;5109119;27;20520;-75
2022/04/07 05:55:48;;;;;;;21.42;3.25;;;;;;;;;;5149638;27;20027;-73
2022/04/07 05:58:15;;;;;;;15.82;2.55;;;;;;;;;;5132589;27;20477;-75
2022/04/07 06:00:41;;;;;;;16.08;2.15;;;;;;;;;;5128275;27;20023;-74
2022/04/07 06:03:07;;;;;;;18.17;2.88;;;;;;;;;;5106382;27;20022;-75
2022/04/07 06:05:32;;;;;;;18.15;2.83;;;;;;;;;;5091459;27;20071;-73
2022/04/07 06:08:03;;;;;;;15.18;2.25;;;;;;;;;;5124184;27;20472;-73
2022/04/07 06:10:29;;;;;;;14.25;1.90;;;;;;;;;;5093041;27;20359;-74
2022/04/07 06:12:54;;;;;;;7.45;1.60;;;;;;;;;;5133160;27;20087;-74
2022/04/07 06:15:20;;;;;;;6.78;1.40;;;;;;;;;;5128997;27;20029;-74
2022/04/07 06:17:45;;;;;;;9.98;1.60;;;;;;;;;;5126644;27;20079;-75
2022/04/07 06:20:11;;;;;;;11.52;2.03;;;;;;;;;;5126681;27;20118;-72
2022/04/07 06:22:37;;;;;;;11.38;2.03;;;;;;;;;;5146008;27;20011;-74
2022/04/07 06:25:03;;;;;;;14.38;2.03;;;;;;;;;;5147742;27;20022;-73
2022/04/07 06:27:38;;;;;;;9.73;1.75;;;;;;;;;;5129306;27;20481;-74
2022/04/07 06:30:04;;;;;;;9.85;1.83;;;;;;;;;;5148097;27;20447;-74
2022/04/07 06:32:29;;;;;;;16.08;2.22;;;;;;;;;;5133097;27;20029;-74
2022/04/07 06:34:54;;;;;;;14.45;1.85;;;;;;;;;;5131216;27;20026;-75
2022/04/07 06:37:20;;;;;;;16.65;1.85;;;;;;;;;;5142203;27;20087;-74
2022/04/07 06:39:45;;;;;;;9.40;1.75;;;;;;;;;;5128776;27;20608;-75
2022/04/07 06:42:11;;;;;;;11.65;1.50;;;;;;;;;;5109600;27;20026;-75
2022/04/07 06:44:36;;;;;;;9.35;1.67;;;;;;;;;;5128111;27;20061;-73
2022/04/07 06:47:02;;;;;;;9.02;1.67;;;;;;;;;;5141825;27;20050;-75
2022/04/07 06:49:27;;;;;;;10.93;1.60;;;;;;;;;;5125838;27;20030;-75
2022/04/07 06:51:52;;;;;;;12.40;2.00;;;;;;;;;;5144936;27;20026;-74
2022/04/07 06:54:18;;;;;;;12.27;1.63;;;;;;;;;;5108950;27;20430;-74
2022/04/07 06:56:43;;;;;;;20.30;1.92;;;;;;;;;;5128304;27;20030;-76
2022/04/07 06:59:08;;;;;;;10.30;1.65;;;;;;;;;;5144275;27;20161;-73
2022/04/07 07:01:34;;;;;;;14.90;1.75;;;;;;;;;;5144618;27;20392;-76
2022/04/07 07:03:59;;;;;;;12.73;1.85;;;;;;;;;;5120359;27;20478;-74
2022/04/07 07:06:24;;;;;;;12.00;2.00;;;;;;;;;;5124858;27;20392;-74
2022/04/07 07:08:49;;;;;;;14.35;2.00;;;;;;;;;;5123537;27;20030;-75
2022/04/07 07:11:15;;;;;;;10.50;1.88;;;;;;;;;;5108109;27;20026;-75
2022/04/07 07:13:40;;;;;;;10.75;2.17;;;;;;;;;;5125586;27;20145;-74
2022/04/07 07:16:06;;;;;;;9.60;1.85;;;;;;;;;;5144566;27;20014;-74
2022/04/07 07:18:32;;;;;;;9.10;1.73;;;;;;;;;;5121800;27;20369;-73
2022/04/07 07:20:57;;;;;;;9.02;1.77;;;;;;;;;;5145925;27;20023;-74
2022/04/07 07:23:22;;;;;;;11.23;1.95;;;;;;;;;;5121956;27;20551;-74
2022/04/07 07:25:47;;;;;;;8.50;2.17;;;;;;;;;;5146055;27;20071;-74
2022/04/07 07:28:13;;;;;;;6.20;1.60;;;;;;;;;;5124710;27;20023;-73
2022/04/07 07:30:38;;;;;;;11.90;2.00;;;;;;;;;;5146666;27;20022;-73
2022/04/07 07:33:04;;;;;;;8.85;1.90;;;;;;;;;;5142273;27;20698;-72
2022/04/07 07:35:29;;;;;;;4.20;1.45;;;;;;;;;;5106375;27;20968;-72
2022/04/07 07:38:02;;;;;;;6.13;1.52;;;;;;;;;;5142107;27;20031;-74
2022/04/07 07:40:31;;;;;;;6.43;1.50;;;;;;;;;;5143241;27;20030;-74
2022/04/07 07:42:57;;;;;;;11.85;1.50;;;;;;;;;;5145074;27;20488;-74
2022/04/07 07:45:23;;;;;;;9.65;1.70;;;;;;;;;;5124852;27;20019;-73
2022/04/07 07:47:48;;;;;;;9.93;2.08;;;;;;;;;;5142358;27;20053;-72
2022/04/07 07:50:13;;;;;;;11.52;1.90;;;;;;;;;;5107478;27;20027;-72
2022/04/07 07:52:39;;;;;;;7.18;1.88;;;;;;;;;;5120647;27;20027;-75
2022/04/07 07:55:04;;;;;;;11.13;2.45;;;;;;;;;;5105556;27;20126;-75
2022/04/07 07:57:30;;;;;;;8.65;1.90;;;;;;;;;;5102836;27;20232;-73
2022/04/07 07:59:56;;;;;;;13.65;2.20;;;;;;;;;;5124542;27;20050;-74
2022/04/07 08:02:21;;;;;;;7.88;1.67;;;;;;;;;;5120860;27;20060;-74
2022/04/07 08:04:46;;;;;;;14.98;2.58;;;;;;;;;;5104724;27;20027;-73
2022/04/07 08:07:13;;;;;;;16.13;2.15;;;;;;;;;;5100494;27;20035;-74
2022/04/07 08:09:38;;;;;;;18.88;2.60;;;;;;;;;;5086659;27;20027;-76
2022/04/07 08:12:04;;;;;;;13.45;2.33;;;;;;;;;;5103294;27;20318;-75
2022/04/07 08:14:30;;;;;;;13.93;2.47;;;;;;;;;;5120241;27;20562;-77
2022/04/07 08:16:56;;;;;;;19.10;2.53;;;;;;;;;;5120661;27;20019;-72
2022/04/07 08:19:22;;;;;;;11.68;2.60;;;;;;;;;;5138311;27;20222;-74
2022/04/07 08:21:47;;;;;;;12.43;2.40;;;;;;;;;;5124438;27;20453;-74
2022/04/07 08:24:16;;;;;;;14.80;2.90;;;;;;;;;;5102732;27;20022;-73
2022/04/07 08:26:41;;;;;;;11.98;2.97;;;;;;;;;;5143791;27;20022;-74
2022/04/07 08:29:06;;;;;;;16.05;2.90;;;;;;;;;;5124351;27;20027;-74
2022/04/07 08:31:32;;;;;;;20.15;2.60;;;;;;;;;;5142142;27;20527;-73
2022/04/07 08:33:57;;;;;;;15.98;3.13;;;;;;;;;;5121149;27;20027;-75
2022/04/07 08:36:22;;;;;;;17.35;2.83;;;;;;;;;;5106096;27;20030;-76
2022/04/07 08:38:48;;;;;;;17.75;2.95;;;;;;;;;;5105367;27;20139;-71
2022/04/07 08:41:14;;;;;;;21.23;3.92;;;;;;;;;;5090667;27;20019;-73
2022/04/07 08:43:40;;;;;;;20.10;3.10;;;;;;;;;;5102774;27;20199;-77
2022/04/07 08:46:08;;;;;;;18.15;3.58;;;;;;;;;;5123621;27;20180;-75
2022/04/07 08:48:38;;;;;;;19.85;4.00;;;;;;;;;;5100086;27;20436;-74
2022/04/07 08:51:04;;;;;;;18.98;3.50;;;;;;;;;;5104898;27;20057;-76
2022/04/07 08:53:30;;;;;;;16.55;3.65;;;;;;;;;;5099761;27;20027;-73
2022/04/07 08:55:55;;;;;;;20.35;3.65;;;;;;;;;;5140936;27;20027;-77
2022/04/07 08:58:20;;;;;;;17.20;3.33;;;;;;;;;;5123005;27;20026;-76
2022/04/07 09:00:47;;;;;;;19.17;3.17;;;;;;;;;;5113458;27;20110;-76
2022/04/07 09:03:13;;;;;;;15.18;3.33;;;;;;;;;;5118559;27;20026;-76
2022/04/07 09:05:50;;;;;;;17.63;3.47;;;;;;;;;;5100800;27;20129;-72
2022/04/07 09:08:18;;;;;;;19.40;3.35;;;;;;;;;;5122853;27;20034;-72
2022/04/07 09:10:43;;;;;;;21.88;3.88;;;;;;;;;;5103439;27;20102;-75
2022/04/07 09:13:11;;;;;;;15.43;3.53;;;;;;;;;;5086132;27;20461;-74
2022/04/07 09:15:36;;;;;;;16.35;3.05;;;;;;;;;;5088624;27;20373;-73
2022/04/07 09:18:01;;;;;;;17.60;3.78;;;;;;;;;;5102316;27;20078;-74
2022/04/07 09:20:27;;;;;;;17.52;2.80;;;;;;;;;;5102527;27;20047;-79
2022/04/07 09:22:56;;;;;;;17.92;3.92;;;;;;;;;;5123337;27;20052;-77
2022/04/07 09:25:21;;;;;;;15.73;3.65;;;;;;;;;;5142925;27;20041;-75
2022/04/07 09:27:48;;;;;;;14.98;2.95;;;;;;;;;;5125788;27;20418;-75
2022/04/07 09:30:14;;;;;;;15.23;2.85;;;;;;;;;;5124704;27;20141;-73
2022/04/07 09:32:41;;;;;;;17.85;3.42;;;;;;;;;;5122139;27;20022;-75
2022/04/07 09:35:07;;;;;;;17.40;3.30;;;;;;;;;;5127290;27;20015;-74
2022/04/07 09:37:33;;;;;;;21.80;4.05;;;;;;;;;;5123596;27;20084;-75
2022/04/07 09:40:06;;;;;;;17.80;3.50;;;;;;;;;;5107774;27;20216;-72
2022/04/07 09:42:33;;;;;;;18.40;3.28;;;;;;;;;;5124925;27;20109;-78
2022/04/07 09:44:59;;;;;;;21.58;3.50;;;;;;;;;;5128087;27;20024;-75
2022/04/07 09:47:37;;;;;;;21.58;3.97;;;;;;;;;;5121789;27;20042;-74
2022/04/07 09:50:03;;;;;;;25.13;4.20;;;;;;;;;;5124282;27;20767;-75
2022/04/07 09:52:28;;;;;;;17.13;3.60;;;;;;;;;;5123841;27;20102;-75
2022/04/07 09:54:57;;;;;;;19.05;3.63;;;;;;;;;;5127533;27;20102;-74
2022/04/07 09:57:25;;;;;;;24.35;3.58;;;;;;;;;;5122678;27;20031;-75
2022/04/07 09:59:50;;;;;;;22.60;4.13;;;;;;;;;;5107131;27;20118;-73
2022/04/07 10:02:17;;;;;;;18.40;4.55;;;;;;;;;;5122723;27;20704;-76
2022/04/07 10:04:43;;;;;;;22.50;4.10;;;;;;;;;;5103256;27;20139;-75
2022/04/07 10:07:11;;;;;;;22.85;4.00;;;;;;;;;;5105307;27;20792;-76
2022/04/07 10:09:38;;;;;;;24.85;4.00;;;;;;;;;;5105165;27;20456;-75
2022/04/07 10:12:03;;;;;;;27.60;4.75;;;;;;;;;;5124868;27;20076;-77
2022/04/07 10:14:30;;;;;;;22.05;4.55;;;;;;;;;;5104054;27;20031;-77
2022/04/07 10:16:56;;;;;;;26.95;4.18;;;;;;;;;;5105789;27;20023;-77
2022/04/07 10:19:23;;;;;;;23.40;4.10;;;;;;;;;;5103920;27;20381;-75
2022/04/07 10:21:56;;;;;;;24.55;4.72;;;;;;;;;;5106411;27;20019;-75
2022/04/07 10:24:34;;;;;;;23.95;4.22;;;;;;;;;;5105340;27;20137;-74
2022/04/07 10:27:03;;;;;;;27.10;5.07;;;;;;;;;;5106083;27;20027;-75
2022/04/07 10:29:28;;;;;;;20.77;4.25;;;;;;;;;;5105562;27;20378;-77
2022/04/07 10:32:14;;;;;;;21.38;4.38;;;;;;;;;;5123814;27;20042;-73
2022/04/07 10:34:42;;;;;;;23.25;4.85;;;;;;;;;;5103788;27;20036;-76
2022/04/07 10:37:08;;;;;;;25.40;4.82;;;;;;;;;;5128736;27;20034;-75
2022/04/07 10:39:34;;;;;;;27.25;5.07;;;;;;;;;;5119328;27;20161;-76
2022/04/07 10:41:59;;;;;;;22.77;5.00;;;;;;;;;;5115236;27;20026;-75
2022/04/07 10:44:25;;;;;;;21.60;5.55;;;;;;;;;;5108949;27;20217;-77
2022/04/07 10:47:04;;;;;;;20.63;4.40;;;;;;;;;;5126345;27;20042;-78
2022/04/07 10:49:45;;;;;;;19.15;4.85;;;;;;;;;;5122675;27;20029;-74
2022/04/07 10:52:25;;;;;;;19.52;3.78;;;;;;;;;;5143483;27;20065;-75
2022/04/07 10:55:10;;;;;;;27.33;5.55;;;;;;;;;;5125053;27;20019;-76
2022/04/07 10:57:40;;;;;;;28.00;4.40;;;;;;;;;;5124286;27;20023;-76
2022/04/07 11:00:08;;;;;;;27.70;4.78;;;;;;;;;;5126271;27;20025;-76
2022/04/07 11:02:33;;;;;;;27.15;4.53;;;;;;;;;;5140998;27;20014;-76
2022/04/07 11:04:59;;;;;;;33.97;6.50;;;;;;;;;;5110231;27;20063;-75
2022/04/07 11:07:25;;;;;;;26.10;4.28;;;;;;;;;;5121312;27;20030;-74
2022/04/07 11:09:53;;;;;;;26.00;5.15;;;;;;;;;;5106639;27;20193;-75
2022/04/07 11:12:23;;;;;;;27.00;4.82;;;;;;;;;;5104387;27;20015;-76
2022/04/07 11:15:11;;;;;;;26.33;4.93;;;;;;;;;;5104516;27;20023;-76
2022/04/07 11:17:43;;;;;;;25.15;4.95;;;;;;;;;;5108381;27;20480;-76
2022/04/07 11:20:15;;;;;;;21.33;5.07;;;;;;;;;;5124743;27;20025;-75
2022/04/07 11:22:48;;;;;;;22.77;4.50;;;;;;;;;;5122701;27;20882;-76
2022/04/07 11:25:14;;;;;;;;;;;;;;;;;;5145454;27;20011;-77
2022/04/07 11:27:42;;;;;;;30.48;5.85;;;;;;;;;;5123908;27;20346;-78
2022/04/07 11:30:09;;;;;;;26.77;5.10;;;;;;;;;;5127835;27;20478;-78
2022/04/07 11:32:35;;;;;;;18.58;4.25;;;;;;;;;;5122069;27;20023;-79
2022/04/07 11:35:13;;;;;;;29.13;5.72;;;;;;;;;;5124276;27;20479;-77
2022/04/07 11:37:40;;;;;;;21.70;4.28;;;;;;;;;;5140985;27;20460;-77
2022/04/07 11:40:06;;;;;;;19.73;4.55;;;;;;;;;;5126809;27;20360;-77
2022/04/07 11:42:32;;;;;;;24.92;5.13;;;;;;;;;;5123407;27;20015;-75
2022/04/07 11:44:59;;;;;;;19.40;4.07;;;;;;;;;;5111439;27;20026;-76
2022/04/07 11:47:27;;;;;;;23.40;4.65;;;;;;;;;;5123055;27;20067;-76
2022/04/07 11:49:53;;;;;;;22.63;4.68;;;;;;;;;;5107756;27;20063;-77
2022/04/07 11:52:26;;;;;;;23.95;4.97;;;;;;;;;;5113658;27;20081;-77
2022/04/07 11:54:52;;;;;;;24.95;5.05;;;;;;;;;;5125359;27;20496;-76
2022/04/07 11:57:17;;;;;;;24.67;4.60;;;;;;;;;;5125978;27;20033;-76
2022/04/07 11:59:43;;;;;;;22.05;4.78;;;;;;;;;;5142677;27;20019;-78
2022/04/07 12:02:08;;;;;;;21.33;4.97;;;;;;;;;;5122334;27;20037;-78
2022/04/07 12:04:36;;;;;;;23.70;5.07;;;;;;;;;;5111179;27;20098;-79
2022/04/07 12:07:02;;;;;;;23.85;4.70;;;;;;;;;;5104614;27;20466;-78
2022/04/07 12:09:28;;;;;;;23.90;5.05;;;;;;;;;;5123757;27;20030;-78
2022/04/07 12:11:54;;;;;;;23.27;4.68;;;;;;;;;;5086803;27;20357;-77
2022/04/07 12:14:24;;;;;;;22.30;4.25;;;;;;;;;;5101320;27;20445;-78
2022/04/07 12:16:50;;;;;;;22.55;4.85;;;;;;;;;;5142797;27;20531;-77
2022/04/07 12:19:17;;;;;;;23.15;4.45;;;;;;;;;;5117336;27;20452;-76
2022/04/07 12:21:53;;;;;;;25.58;4.82;;;;;;;;;;5101416;27;20055;-78
2022/04/07 12:24:19;;;;;;;23.80;4.18;;;;;;;;;;5103121;27;20488;-77
2022/04/07 12:26:48;;;;;;;21.55;5.13;;;;;;;;;;5119727;27;20019;-77
2022/04/07 12:29:14;;;;;;;24.58;4.82;;;;;;;;;;5103228;27;20064;-78
2022/04/07 12:31:39;;;;;;;24.63;4.30;;;;;;;;;;5086027;27;20054;-78
2022/04/07 12:34:08;;;;;;;24.17;4.88;;;;;;;;;;5101232;27;20064;-76
2022/04/07 12:36:36;;;;;;;21.85;4.63;;;;;;;;;;5121503;27;20027;-76
2022/04/07 12:39:05;;;;;;;26.10;5.05;;;;;;;;;;5125932;27;20515;-78
2022/04/07 12:41:49;;;;;;;30.92;5.15;;;;;;;;;;5123012;27;20015;-75
2022/04/07 12:44:21;;;;;;;24.52;4.90;;;;;;;;;;5104207;27;20022;-76
2022/04/07 12:46:48;;;;;;;23.95;4.60;;;;;;;;;;5102536;27;20106;-76
2022/04/07 12:49:14;;;;;;;22.48;4.80;;;;;;;;;;5100447;27;20088;-76
2022/04/07 12:51:40;;;;;;;27.63;5.60;;;;;;;;;;5120651;27;20427;-76
2022/04/07 12:54:09;;;;;;;20.33;4.40;;;;;;;;;;5101915;27;20107;-76
2022/04/07 12:56:36;;;;;;;24.58;5.05;;;;;;;;;;5121343;27;20045;-77
2022/04/07 12:59:03;;;;;;;26.85;4.90;;;;;;;;;;5103588;27;20388;-78
2022/04/07 13:01:29;;;;;;;20.85;4.68;;;;;;;;;;5125116;27;20019;-78
2022/04/07 13:03:56;;;;;;;23.20;5.03;;;;;;;;;;5117206;27;20133;-77
2022/04/07 13:06:22;;;;;;;27.00;5.50;;;;;;;;;;5105393;27;20019;-78
2022/04/07 13:08:47;;;;;;;31.05;4.75;;;;;;;;;;5099231;27;20019;-78
2022/04/07 13:11:13;;;;;;;25.50;4.82;;;;;;;;;;5126720;27;20035;-76
2022/04/07 13:13:38;;;;;;;27.17;4.70;;;;;;;;;;5087796;27;20023;-77
2022/04/07 13:16:04;;;;;;;24.67;4.90;;;;;;;;;;5107694;27;20026;-76
2022/04/07 13:18:29;;;;;;;20.50;3.95;;;;;;;;;;5087158;27;20026;-78
2022/04/07 13:20:54;;;;;;;20.48;4.00;;;;;;;;;;5125926;27;20298;-76
2022/04/07 13:23:19;;;;;;;17.00;3.65;;;;;;;;;;5124807;27;20019;-76
2022/04/07 13:25:45;;;;;;;21.23;3.50;;;;;;;;;;5107404;27;20449;-77
2022/04/07 13:28:10;;;;;;;25.17;5.15;;;;;;;;;;5135379;27;20033;-79
2022/04/07 13:30:37;;;;;;;25.23;4.60;;;;;;;;;;5112047;27;20019;-76
2022/04/07 13:33:02;;;;;;;29.83;5.50;;;;;;;;;;5101044;27;20039;-77
2022/04/07 13:35:28;;;;;;;25.33;5.10;;;;;;;;;;5125213;27;20551;-77
2022/04/07 13:37:57;;;;;;;25.92;4.25;;;;;;;;;;5102566;27;20504;-78
2022/04/07 13:40:25;;;;;;;26.98;4.30;;;;;;;;;;5107022;27;20436;-76
2022/04/07 13:42:50;;;;;;;31.02;5.45;;;;;;;;;;5124673;27;20019;-77
2022/04/07 13:45:16;;;;;;;25.50;4.95;;;;;;;;;;5111168;27;20463;-77
2022/04/07 13:47:41;;;;;;;23.52;4.10;;;;;;;;;;5142811;27;20045;-76
2022/04/07 13:50:07;;;;;;;21.15;4.47;;;;;;;;;;5110090;27;20376;-76
2022/04/07 13:52:32;;;;;;;27.38;4.97;;;;;;;;;;5124356;27;20388;-77
2022/04/07 13:54:57;;;;;;;23.08;4.47;;;;;;;;;;5145604;27;21031;-75
2022/04/07 13:57:24;;;;;;;25.30;4.32;;;;;;;;;;5128210;27;20526;-75
2022/04/07 13:59:49;;;;;;;20.08;4.28;;;;;;;;;;5143772;27;20019;-74
2022/04/07 14:02:16;;;;;;;20.40;4.25;;;;;;;;;;5143363;27;20014;-77
2022/04/07 14:04:42;;;;;;;25.10;4.25;;;;;;;;;;5139741;27;20023;-78
2022/04/07 14:07:07;;;;;;;24.20;3.90;;;;;;;;;;5103969;27;20172;-78
2022/04/07 14:09:33;;;;;;;20.02;3.38;;;;;;;;;;5089463;27;20466;-77
2022/04/07 14:11:58;;;;;;;14.10;2.47;;;;;;;;;;5103516;27;20800;-79
2022/04/07 14:14:24;;;;;;;8.68;2.67;;;;;;;;;;5104592;27;20491;-76
2022/04/07 14:16:50;;;;;;;10.27;1.80;;;;;;;;;;5126005;27;20483;-77
2022/04/07 14:19:16;;;;;;;11.85;2.42;;;;;;;;;;5126573;27;20045;-76
2022/04/07 14:21:41;;;;;;;16.83;3.28;;;;;;;;;;5126868;27;20504;-76
2022/04/07 14:24:07;;;;;;;17.58;3.45;;;;;;;;;;5107151;27;20048;-77
2022/04/07 14:26:35;;;;;;;10.18;2.28;;;;;;;;;;5148045;27;20027;-77